Ammansville, Texas
Current Conditions -  °F | °C
As of 2:50 PM on Tuesday 25 Nov 2014 (Local Time) from K3T5 Reporting Station
Clear Clear  
Wind Chill: 67°   Ceiling: Unl
Heat Index: 67°   Visibility: 10mi
Dew Point: 28°   Wind: 12mph
Humidity: 23%   Direction: 310°NW
Pressure: 30.23"   Gusts: NA
Location:  29.8569°N, 96.9311°W
Report Text: K3T5 252050Z AUTO 31010KT 10SM CLR 20/M02 A3023 RMK AO2 60015 T01961023
Loading
Personal Weather Stations






























Interactive Weather Map New forecast layout! Learn more

10-Day Weather Forecast

Advertisements
Track Severe Weather on mobile